createdAt,value
2019-05-21T00:00:03.689Z,48.70
2019-05-21T00:01:03.673Z,50.80
2019-05-21T00:02:03.652Z,50.40
2019-05-21T00:03:03.750Z,48.30
2019-05-21T00:04:03.611Z,51.50
2019-05-21T00:05:03.595Z,44.90
2019-05-21T00:06:03.595Z,45.40
2019-05-21T00:07:03.573Z,45.10
2019-05-21T00:08:03.584Z,45.00
2019-05-21T00:09:03.555Z,42.80
2019-05-21T00:10:03.563Z,46.70
2019-05-21T00:11:03.596Z,43.20
2019-05-21T00:12:03.558Z,49.30
2019-05-21T00:13:03.539Z,43.70
2019-05-21T00:14:03.496Z,42.30
2019-05-21T00:15:03.490Z,46.20
2019-05-21T00:16:03.502Z,44.10
2019-05-21T00:17:03.472Z,45.10
2019-05-21T00:18:03.476Z,44.10
2019-05-21T00:19:03.445Z,45.20
2019-05-21T00:20:03.433Z,42.70
2019-05-21T00:21:03.451Z,44.90
2019-05-21T00:22:03.406Z,45.80
2019-05-21T00:23:03.399Z,41.60
2019-05-21T00:24:03.572Z,47.90
2019-05-21T00:25:03.413Z,42.30
2019-05-21T00:26:03.368Z,45.80
2019-05-21T00:27:03.361Z,45.40
2019-05-21T00:28:03.340Z,44.70
2019-05-21T00:29:03.348Z,41.60
2019-05-21T00:30:03.319Z,44.40
2019-05-21T00:31:03.310Z,44.00
2019-05-21T00:32:03.301Z,44.50
2019-05-21T00:33:03.302Z,42.20
2019-05-21T00:34:03.300Z,42.00
2019-05-21T00:35:03.276Z,41.00
2019-05-21T00:36:03.254Z,40.20
2019-05-21T00:37:03.295Z,40.70
2019-05-21T00:38:03.231Z,39.40
2019-05-21T00:39:03.253Z,39.10
2019-05-21T00:40:03.212Z,41.30
2019-05-21T00:41:03.200Z,41.90
2019-05-21T00:42:03.210Z,37.20
2019-05-21T00:43:03.172Z,38.20
2019-05-21T00:44:03.205Z,39.90
2019-05-21T00:45:03.154Z,37.70
2019-05-21T00:46:03.200Z,40.10
2019-05-21T00:47:03.192Z,39.00
2019-05-21T00:48:05.788Z,38.80
2019-05-21T00:49:03.115Z,40.90
2019-05-21T00:50:03.122Z,38.00
2019-05-21T00:51:03.099Z,38.30
2019-05-21T00:52:08.228Z,40.90
2019-05-21T00:53:04.064Z,38.60
2019-05-21T00:54:03.074Z,41.30
2019-05-21T00:55:03.056Z,39.00
2019-05-21T00:56:03.042Z,39.60
2019-05-21T00:57:03.286Z,36.60
2019-05-21T00:58:03.013Z,38.10
2019-05-21T00:59:02.999Z,39.80
2019-05-21T01:00:03.019Z,38.70
2019-05-21T01:01:02.975Z,36.30
2019-05-21T01:02:02.974Z,37.60
2019-05-21T01:03:02.962Z,39.80
2019-05-21T01:04:02.943Z,40.00
2019-05-21T01:05:02.963Z,38.60
2019-05-21T01:06:02.918Z,39.60
2019-05-21T01:07:02.906Z,40.40
2019-05-21T01:08:02.897Z,37.50
2019-05-21T01:09:02.894Z,36.10
2019-05-21T01:10:02.970Z,34.30
2019-05-21T01:11:02.870Z,34.60
2019-05-21T01:12:02.852Z,34.70
2019-05-21T01:13:02.846Z,33.90
2019-05-21T01:14:02.836Z,35.10
2019-05-21T01:15:02.836Z,33.70
2019-05-21T01:16:02.808Z,34.00
2019-05-21T01:17:02.797Z,35.60
2019-05-21T01:18:02.827Z,34.40
2019-05-21T01:19:02.775Z,38.20
2019-05-21T01:20:02.780Z,33.90
2019-05-21T01:21:02.759Z,35.20
2019-05-21T01:22:02.761Z,34.40
2019-05-21T01:23:02.734Z,40.90
2019-05-21T01:24:02.718Z,36.80
2019-05-21T01:25:02.712Z,36.60
2019-05-21T01:26:02.718Z,36.40
2019-05-21T01:27:02.714Z,35.50
2019-05-21T01:28:02.677Z,36.20
2019-05-21T01:29:02.664Z,37.60
2019-05-21T01:30:02.653Z,35.30
2019-05-21T01:31:02.687Z,33.60
2019-05-21T01:32:02.894Z,36.50
2019-05-21T01:33:02.647Z,34.80
2019-05-21T01:34:02.602Z,35.60
2019-05-21T01:35:16.107Z,33.40
2019-05-21T01:36:03.610Z,32.70
2019-05-21T01:37:02.570Z,31.50
2019-05-21T01:38:02.562Z,30.90
2019-05-21T01:39:02.556Z,32.70
2019-05-21T01:40:02.537Z,30.50
2019-05-21T01:41:02.600Z,29.40
2019-05-21T01:42:02.542Z,29.50
2019-05-21T01:43:03.490Z,32.90
2019-05-21T01:44:02.737Z,29.30
2019-05-21T01:45:02.479Z,31.20
2019-05-21T01:46:02.474Z,29.80
2019-05-21T01:47:02.492Z,31.10
2019-05-21T01:48:02.450Z,29.90
2019-05-21T01:49:02.437Z,31.10
2019-05-21T01:50:02.421Z,30.50
2019-05-21T01:51:02.464Z,30.10
2019-05-21T01:52:02.427Z,30.20
2019-05-21T01:53:02.581Z,29.40
2019-05-21T01:54:02.385Z,28.90
2019-05-21T01:55:02.380Z,32.60
2019-05-21T01:56:02.364Z,32.90
2019-05-21T01:57:02.557Z,32.70
2019-05-21T01:58:02.336Z,30.90
2019-05-21T01:59:02.331Z,31.20
2019-05-21T02:00:02.320Z,31.90
2019-05-21T02:01:02.312Z,30.30
2019-05-21T02:02:02.317Z,30.00
2019-05-21T02:03:02.276Z,32.50
2019-05-21T02:04:02.277Z,28.80
2019-05-21T02:05:02.258Z,31.60
2019-05-21T02:06:02.262Z,32.50
2019-05-21T02:07:02.260Z,30.40
2019-05-21T02:08:02.221Z,29.00
2019-05-21T02:09:02.221Z,30.80
2019-05-21T02:10:02.208Z,29.60
2019-05-21T02:11:02.190Z,29.60
2019-05-21T02:12:02.205Z,30.40
2019-05-21T02:13:02.172Z,31.20
2019-05-21T02:14:02.167Z,30.20
2019-05-21T02:15:02.197Z,31.30
2019-05-21T02:16:02.154Z,29.40
2019-05-21T02:17:02.160Z,29.30
2019-05-21T02:18:02.115Z,30.40
2019-05-21T02:19:02.258Z,29.10
2019-05-21T02:20:03.035Z,30.30
2019-05-21T02:21:02.078Z,29.40
2019-05-21T02:22:02.109Z,29.50
2019-05-21T02:23:02.058Z,28.90
2019-05-21T02:24:02.056Z,28.60
2019-05-21T02:25:02.036Z,29.70
2019-05-21T02:26:02.027Z,28.10
2019-05-21T02:27:02.036Z,28.70
2019-05-21T02:28:02.020Z,28.20
2019-05-21T02:29:02.373Z,29.80
2019-05-21T02:30:02.333Z,29.10
2019-05-21T02:31:01.986Z,28.70
2019-05-21T02:32:01.984Z,30.10
2019-05-21T02:33:01.973Z,29.00
2019-05-21T02:34:01.942Z,30.00
2019-05-21T02:35:02.556Z,31.70
2019-05-21T02:36:01.916Z,31.50
2019-05-21T02:37:05.859Z,33.30
2019-05-21T02:38:01.912Z,31.20
2019-05-21T02:39:01.895Z,32.30
2019-05-21T02:40:01.881Z,30.20
2019-05-21T02:41:01.863Z,29.60
2019-05-21T02:42:01.847Z,31.30
2019-05-21T02:43:01.852Z,29.00
2019-05-21T02:44:01.833Z,28.90
2019-05-21T02:45:01.871Z,28.50
2019-05-21T02:46:01.805Z,27.60
2019-05-21T02:47:01.799Z,28.70
2019-05-21T02:48:01.823Z,28.30
2019-05-21T02:49:01.765Z,31.40
2019-05-21T02:50:02.168Z,28.40
2019-05-21T02:51:01.748Z,27.80
2019-05-21T02:52:01.748Z,27.70
2019-05-21T02:53:01.763Z,29.50
2019-05-21T02:54:01.718Z,28.10
2019-05-21T02:55:01.853Z,27.70
2019-05-21T02:56:01.703Z,27.90
2019-05-21T02:57:01.690Z,27.80
2019-05-21T02:58:01.681Z,27.40
2019-05-21T02:59:01.654Z,28.00
2019-05-21T03:00:01.647Z,28.00
2019-05-21T03:01:01.638Z,26.90
2019-05-21T03:02:01.634Z,26.70
2019-05-21T03:03:01.634Z,27.20
2019-05-21T03:04:01.609Z,26.60
2019-05-21T03:05:01.633Z,28.20
2019-05-21T03:06:13.212Z,27.70
2019-05-21T03:07:02.567Z,30.60
2019-05-21T03:08:01.572Z,26.80
2019-05-21T03:09:01.547Z,27.20
2019-05-21T03:10:01.534Z,28.50
2019-05-21T03:11:01.535Z,28.00
2019-05-21T03:12:01.512Z,28.60
2019-05-21T03:13:01.535Z,29.10
2019-05-21T03:14:01.512Z,27.70
2019-05-21T03:15:01.505Z,27.50
2019-05-21T03:16:01.465Z,27.40
2019-05-21T03:17:01.464Z,28.10
2019-05-21T03:18:01.472Z,27.80
2019-05-21T03:19:01.446Z,27.30
2019-05-21T03:20:01.419Z,31.00
2019-05-21T03:21:01.415Z,28.60
2019-05-21T03:22:01.401Z,27.60
2019-05-21T03:23:01.406Z,28.70
2019-05-21T03:24:01.383Z,28.20
2019-05-21T03:25:02.757Z,28.80
2019-05-21T03:26:01.357Z,29.20
2019-05-21T03:27:01.347Z,28.70
2019-05-21T03:28:01.355Z,32.10
2019-05-21T03:29:01.324Z,29.10
2019-05-21T03:30:01.311Z,28.60
2019-05-21T03:31:01.309Z,28.10
2019-05-21T03:33:02.526Z,29.20
2019-05-21T03:34:22.286Z,28.60
2019-05-21T03:35:22.261Z,28.50
2019-05-21T03:36:01.246Z,28.30
2019-05-21T03:37:01.234Z,28.90
2019-05-21T03:38:22.246Z,27.70
2019-05-21T03:39:22.221Z,29.30
2019-05-21T03:40:01.197Z,27.90
2019-05-21T03:41:01.198Z,27.60
2019-05-21T03:42:01.181Z,29.00
2019-05-21T03:43:01.193Z,27.60
2019-05-21T03:44:01.169Z,27.70
2019-05-21T03:45:01.381Z,27.50
2019-05-21T03:46:01.129Z,26.80
2019-05-21T03:47:01.243Z,28.60
2019-05-21T03:48:01.138Z,27.60
2019-05-21T03:49:01.138Z,27.60
2019-05-21T03:50:01.103Z,27.70
2019-05-21T03:51:01.110Z,27.70
2019-05-21T03:52:01.068Z,31.60
2019-05-21T03:53:01.082Z,29.90
2019-05-21T03:54:01.093Z,31.50
2019-05-21T03:55:03.074Z,29.70
2019-05-21T03:57:02.225Z,27.90
2019-05-21T03:58:01.153Z,28.60
2019-05-21T03:59:01.181Z,29.00
2019-05-21T04:00:01.140Z,29.50
2019-05-21T04:01:01.730Z,30.00
2019-05-21T04:02:01.128Z,27.70
2019-05-21T04:03:00.943Z,27.60
2019-05-21T04:04:00.952Z,27.60
2019-05-21T04:05:00.926Z,28.50
2019-05-21T04:06:00.914Z,28.10
2019-05-21T04:07:00.917Z,30.60
2019-05-21T04:08:00.886Z,28.80
2019-05-21T04:09:00.902Z,28.20
2019-05-21T04:10:00.865Z,27.50
2019-05-21T04:11:00.970Z,27.20
2019-05-21T04:12:00.903Z,29.20
2019-05-21T04:13:00.836Z,28.80
2019-05-21T04:14:00.847Z,30.70
2019-05-21T04:15:00.812Z,29.50
2019-05-21T04:16:00.869Z,32.30
2019-05-21T04:17:00.792Z,30.60
2019-05-21T04:18:00.784Z,29.00
2019-05-21T04:19:00.795Z,26.90
2019-05-21T04:20:00.755Z,29.40
2019-05-21T04:21:00.749Z,31.20
2019-05-21T04:22:00.734Z,29.10
2019-05-21T04:23:00.738Z,28.00
2019-05-21T04:24:00.722Z,27.60
2019-05-21T04:25:00.696Z,29.60
2019-05-21T04:26:00.685Z,27.80
2019-05-21T04:27:00.693Z,27.00
2019-05-21T04:28:00.670Z,27.20
2019-05-21T04:29:00.673Z,27.30
2019-05-21T04:30:00.653Z,28.40
2019-05-21T04:31:00.637Z,27.50
2019-05-21T04:32:00.624Z,26.40
2019-05-21T04:33:00.607Z,26.60
2019-05-21T04:34:00.620Z,25.70
2019-05-21T04:35:00.584Z,26.30
2019-05-21T04:36:00.589Z,27.60
2019-05-21T04:37:09.963Z,25.30
2019-05-21T04:38:01.555Z,26.00
2019-05-21T04:39:00.566Z,25.70
2019-05-21T04:40:00.533Z,27.30
2019-05-21T04:41:00.526Z,27.70
2019-05-21T04:42:00.518Z,27.70
2019-05-21T04:43:02.089Z,30.10
2019-05-21T04:44:00.499Z,28.30
2019-05-21T04:45:00.480Z,27.10
2019-05-21T04:46:00.464Z,29.60
2019-05-21T04:47:00.455Z,26.50
2019-05-21T04:48:00.442Z,28.20
2019-05-21T04:49:00.445Z,27.90
2019-05-21T04:50:00.420Z,28.30
2019-05-21T04:51:00.418Z,26.80
2019-05-21T04:52:00.399Z,27.00
2019-05-21T04:53:00.404Z,27.80
2019-05-21T04:54:00.395Z,26.90
2019-05-21T04:55:00.361Z,26.30
2019-05-21T04:56:00.353Z,26.30
2019-05-21T04:57:00.439Z,26.70
2019-05-21T04:58:00.339Z,28.00
2019-05-21T04:59:00.350Z,25.90
2019-05-21T05:00:00.315Z,26.60
2019-05-21T05:01:00.295Z,25.50
2019-05-21T05:02:00.287Z,25.80
2019-05-21T05:03:00.279Z,28.30
2019-05-21T05:04:00.293Z,26.10
2019-05-21T05:05:00.266Z,28.40
2019-05-21T05:06:00.240Z,26.70
2019-05-21T05:07:00.231Z,26.50
2019-05-21T05:08:00.218Z,26.90
2019-05-21T05:09:00.228Z,27.00
2019-05-21T05:10:00.195Z,24.70
2019-05-21T05:11:00.196Z,25.60
2019-05-21T05:12:00.231Z,25.90
2019-05-21T05:13:00.168Z,26.40
2019-05-21T05:14:00.176Z,26.90
2019-05-21T05:15:00.142Z,26.10
2019-05-21T05:16:01.062Z,25.90
2019-05-21T05:17:00.120Z,27.40
2019-05-21T05:18:00.103Z,24.50
2019-05-21T05:19:00.112Z,24.80
2019-05-21T05:20:00.093Z,26.70
2019-05-21T05:21:00.075Z,24.60
2019-05-21T05:22:00.066Z,29.70
2019-05-21T05:23:00.062Z,27.20
2019-05-21T05:24:00.060Z,25.10
2019-05-21T05:25:00.060Z,23.90
2019-05-21T05:26:00.029Z,23.10
2019-05-21T05:27:00.012Z,22.60
2019-05-21T05:28:00.004Z,23.50
2019-05-21T05:28:59.987Z,23.00
2019-05-21T05:29:59.991Z,26.90
2019-05-21T05:30:59.966Z,24.30
2019-05-21T05:31:59.959Z,23.70
2019-05-21T05:32:59.939Z,24.10
2019-05-21T05:33:59.948Z,23.90
2019-05-21T05:34:59.937Z,23.20
2019-05-21T05:35:59.904Z,23.90
2019-05-21T05:36:59.913Z,22.90
2019-05-21T05:37:59.884Z,24.50
2019-05-21T05:38:59.876Z,24.20
2019-05-21T05:39:59.880Z,22.30
2019-05-21T05:40:59.848Z,22.40
2019-05-21T05:41:59.837Z,23.00
2019-05-21T05:42:59.826Z,23.50
2019-05-21T05:43:59.820Z,23.70
2019-05-21T05:44:59.824Z,22.70
2019-05-21T05:45:59.845Z,21.60
2019-05-21T05:46:59.787Z,21.70
2019-05-21T05:47:59.770Z,21.90
2019-05-21T05:49:01.873Z,21.50
2019-05-21T05:49:59.771Z,21.60
2019-05-21T05:50:59.752Z,21.20
2019-05-21T05:51:59.721Z,23.80
2019-05-21T05:52:59.721Z,22.30
2019-05-21T05:53:59.710Z,20.50
2019-05-21T05:54:59.708Z,22.90
2019-05-21T05:55:59.709Z,20.60
2019-05-21T05:56:59.674Z,20.90
2019-05-21T05:57:59.658Z,21.30
2019-05-21T05:58:59.654Z,19.60
2019-05-21T05:59:59.661Z,19.30
2019-05-21T06:00:59.626Z,19.60
2019-05-21T06:01:59.625Z,21.30
2019-05-21T06:02:59.603Z,19.70
2019-05-21T06:03:59.589Z,17.90
2019-05-21T06:04:59.600Z,19.30
2019-05-21T06:05:59.573Z,19.70
2019-05-21T06:06:59.560Z,20.00
2019-05-21T06:08:00.521Z,20.80
2019-05-21T06:08:59.539Z,18.50
2019-05-21T06:09:59.543Z,19.50
2019-05-21T06:10:59.511Z,17.80
2019-05-21T06:11:59.504Z,19.00
2019-05-21T06:12:59.498Z,23.50
2019-05-21T06:14:00.556Z,18.50
2019-05-21T06:14:59.491Z,17.60
2019-05-21T06:15:59.458Z,19.50
2019-05-21T06:16:59.447Z,21.00
2019-05-21T06:17:59.430Z,20.10
2019-05-21T06:18:59.428Z,18.60
2019-05-21T06:19:59.428Z,17.30
2019-05-21T06:20:59.400Z,18.50
2019-05-21T06:21:59.391Z,15.90
2019-05-21T06:22:59.393Z,16.90
2019-05-21T06:23:59.368Z,16.70
2019-05-21T06:24:59.372Z,17.10
2019-05-21T06:25:59.351Z,18.50
2019-05-21T06:26:59.334Z,16.60
2019-05-21T06:27:59.320Z,18.40
2019-05-21T06:28:59.310Z,16.20
2019-05-21T06:29:59.325Z,16.30
2019-05-21T06:30:59.299Z,16.30
2019-05-21T06:31:59.282Z,16.30
2019-05-21T06:32:59.268Z,14.90
2019-05-21T06:33:59.254Z,14.80
2019-05-21T06:34:59.261Z,14.50
2019-05-21T06:35:59.232Z,16.80
2019-05-21T06:36:59.223Z,15.30
2019-05-21T06:38:15.005Z,15.10
2019-05-21T06:39:00.197Z,15.40
2019-05-21T06:39:59.202Z,14.10
2019-05-21T06:40:59.178Z,13.20
2019-05-21T06:41:59.174Z,14.10
2019-05-21T06:42:59.159Z,14.00
2019-05-21T06:43:59.150Z,14.00
2019-05-21T06:44:59.160Z,13.50
2019-05-21T06:45:59.123Z,12.90
2019-05-21T06:46:59.111Z,13.60
2019-05-21T06:47:59.104Z,14.30
2019-05-21T06:48:59.091Z,13.60
2019-05-21T06:49:59.196Z,14.90
2019-05-21T06:50:59.098Z,13.90
2019-05-21T06:51:59.116Z,15.40
2019-05-21T06:52:59.043Z,14.50
2019-05-21T06:53:59.032Z,16.80
2019-05-21T06:54:59.119Z,12.70
2019-05-21T06:55:59.030Z,15.10
2019-05-21T06:56:58.999Z,15.60
2019-05-21T06:57:58.989Z,15.50
2019-05-21T06:58:59.002Z,16.60
2019-05-21T06:59:59.012Z,13.70
2019-05-21T07:00:58.955Z,14.70
2019-05-21T07:01:58.947Z,14.90
2019-05-21T07:02:58.934Z,13.70
2019-05-21T07:03:58.922Z,12.80
2019-05-21T07:04:58.914Z,13.90
2019-05-21T07:05:59.636Z,12.90
2019-05-21T07:06:58.902Z,11.90
2019-05-21T07:07:58.880Z,12.20
2019-05-21T07:08:58.866Z,11.20
2019-05-21T07:09:58.856Z,10.60
2019-05-21T07:10:58.865Z,9.70
2019-05-21T07:11:58.837Z,8.50
2019-05-21T07:12:58.823Z,10.50
2019-05-21T07:13:58.827Z,11.20
2019-05-21T07:14:58.814Z,11.10
2019-05-21T07:15:58.817Z,10.30
2019-05-21T07:16:58.771Z,13.80
2019-05-21T07:17:58.769Z,10.60
2019-05-21T07:18:58.755Z,11.80
2019-05-21T07:19:58.750Z,9.30
2019-05-21T07:20:58.747Z,9.20
2019-05-21T07:22:12.222Z,11.10
2019-05-21T07:23:02.719Z,10.60
2019-05-21T07:23:58.708Z,9.80
2019-05-21T07:24:58.708Z,9.40
2019-05-21T07:25:58.685Z,9.20
2019-05-21T07:26:58.670Z,10.20
2019-05-21T07:27:58.664Z,8.00
2019-05-21T07:28:59.618Z,9.70
2019-05-21T07:29:58.707Z,7.70
2019-05-21T07:30:58.650Z,9.40
2019-05-21T07:31:58.613Z,9.40
2019-05-21T07:32:58.611Z,8.00
2019-05-21T07:33:58.583Z,12.50
2019-05-21T07:34:58.599Z,8.40
2019-05-21T07:35:58.565Z,9.50
2019-05-21T07:36:58.581Z,7.70
2019-05-21T07:37:58.539Z,8.30
2019-05-21T07:38:58.557Z,8.10
2019-05-21T07:39:58.532Z,8.30
2019-05-21T07:40:58.551Z,9.10
2019-05-21T07:41:58.662Z,8.00
2019-05-21T07:42:58.511Z,7.40
2019-05-21T07:43:58.478Z,7.40
2019-05-21T07:44:58.464Z,7.60
2019-05-21T07:45:59.083Z,10.40
2019-05-21T07:46:58.483Z,7.70
2019-05-21T07:47:58.426Z,10.00
2019-05-21T07:48:58.433Z,7.40
2019-05-21T07:49:58.415Z,9.10
2019-05-21T07:50:58.411Z,8.80
2019-05-21T07:51:58.414Z,10.00
2019-05-21T07:52:58.372Z,7.50
2019-05-21T07:53:58.359Z,8.00
2019-05-21T07:54:58.350Z,9.10
2019-05-21T07:55:58.340Z,8.00
2019-05-21T07:56:58.355Z,7.00
2019-05-21T07:57:58.312Z,8.90
2019-05-21T07:58:58.308Z,8.40
2019-05-21T07:59:58.301Z,7.00
2019-05-21T08:01:01.193Z,7.50
2019-05-21T08:01:58.294Z,8.40
2019-05-21T08:02:59.082Z,8.90
2019-05-21T08:03:58.283Z,8.00
2019-05-21T08:04:58.268Z,8.40
2019-05-21T08:05:58.253Z,8.00
2019-05-21T08:06:58.214Z,7.80
2019-05-21T08:07:58.248Z,7.20
2019-05-21T08:09:12.310Z,6.90
2019-05-21T08:09:59.186Z,7.00
2019-05-21T08:10:58.168Z,7.60
2019-05-21T08:11:58.172Z,7.30
2019-05-21T08:12:58.174Z,8.80
2019-05-21T08:13:58.149Z,9.00
2019-05-21T08:14:58.134Z,6.40
2019-05-21T08:15:58.140Z,7.40
2019-05-21T08:16:58.181Z,5.40
2019-05-21T08:17:58.127Z,6.80
2019-05-21T08:18:58.094Z,6.10
2019-05-21T08:20:08.524Z,6.10
2019-05-21T08:20:59.065Z,6.70
2019-05-21T08:21:58.057Z,5.90
2019-05-21T08:22:58.075Z,6.10
2019-05-21T08:23:58.028Z,7.00
2019-05-21T08:24:58.022Z,7.20
2019-05-21T08:25:58.024Z,6.90
2019-05-21T08:26:58.006Z,6.50
2019-05-21T08:27:58.012Z,6.10
2019-05-21T08:28:57.974Z,6.70
2019-05-21T08:29:57.964Z,6.60
2019-05-21T08:31:01.909Z,5.70
2019-05-21T08:31:57.951Z,7.90
2019-05-21T08:32:57.960Z,6.20
2019-05-21T08:33:57.926Z,6.90
2019-05-21T08:34:57.919Z,6.40
2019-05-21T08:35:57.920Z,6.40
2019-05-21T08:36:57.948Z,6.00
2019-05-21T08:37:57.879Z,5.20
2019-05-21T08:38:57.880Z,6.60
2019-05-21T08:39:57.852Z,5.60
2019-05-21T08:40:57.851Z,5.90
2019-05-21T08:41:57.829Z,5.30
2019-05-21T08:42:57.843Z,6.40
2019-05-21T08:43:57.832Z,4.90
2019-05-21T08:44:57.801Z,4.90
2019-05-21T08:45:57.783Z,7.50
2019-05-21T08:46:57.775Z,6.50
2019-05-21T08:47:57.771Z,5.60
2019-05-21T08:48:57.779Z,5.10
2019-05-21T08:49:57.744Z,6.70
2019-05-21T08:50:57.729Z,7.20
2019-05-21T08:51:59.136Z,5.40
2019-05-21T08:52:57.703Z,4.70
2019-05-21T08:53:57.738Z,5.30
2019-05-21T08:54:57.686Z,5.30
2019-05-21T08:55:57.678Z,7.20
2019-05-21T08:56:57.663Z,6.00
2019-05-21T08:58:06.891Z,5.50
2019-05-21T08:58:58.663Z,5.10
2019-05-21T08:59:57.647Z,6.60
2019-05-21T09:00:57.620Z,5.60
2019-05-21T09:01:59.118Z,5.00
2019-05-21T09:02:57.598Z,5.70
2019-05-21T09:03:57.606Z,5.40
2019-05-21T09:04:57.574Z,5.10
2019-05-21T09:05:57.591Z,6.10
2019-05-21T09:06:57.550Z,6.80
2019-05-21T09:07:57.537Z,6.20
2019-05-21T09:08:57.524Z,5.80
2019-05-21T09:09:57.683Z,6.30
2019-05-21T09:10:57.546Z,5.40
2019-05-21T09:11:57.489Z,5.70
2019-05-21T09:12:57.541Z,5.00
2019-05-21T09:13:57.472Z,4.40
2019-05-21T09:14:57.604Z,5.00
2019-05-21T09:15:57.452Z,5.20
2019-05-21T09:16:57.447Z,6.00
2019-05-21T09:17:57.432Z,5.10
2019-05-21T09:18:57.426Z,4.30
2019-05-21T09:19:57.429Z,5.00
2019-05-21T09:20:57.412Z,4.20
2019-05-21T09:21:57.382Z,5.60
2019-05-21T09:22:57.397Z,6.20
2019-05-21T09:23:57.370Z,5.50
2019-05-21T09:24:57.390Z,5.60
2019-05-21T09:25:57.338Z,6.80
2019-05-21T09:26:57.333Z,5.60
2019-05-21T09:27:57.329Z,5.50
2019-05-21T09:28:57.323Z,6.30
2019-05-21T09:29:57.317Z,6.60
2019-05-21T09:31:01.265Z,4.70
2019-05-21T09:31:57.274Z,5.10
2019-05-21T09:32:57.267Z,4.40
2019-05-21T09:33:57.256Z,4.50
2019-05-21T09:34:57.275Z,4.70
2019-05-21T09:35:57.257Z,5.40
2019-05-21T09:36:57.226Z,4.10
2019-05-21T09:37:57.206Z,5.90
2019-05-21T09:38:57.210Z,4.80
2019-05-21T09:39:57.243Z,6.00
2019-05-21T09:40:57.202Z,4.40
2019-05-21T09:41:57.228Z,4.80
2019-05-21T09:42:57.150Z,4.90
2019-05-21T09:43:57.146Z,3.90
2019-05-21T09:44:57.131Z,4.90
2019-05-21T09:45:57.158Z,3.70
2019-05-21T09:46:57.128Z,4.40
2019-05-21T09:47:57.095Z,3.90
2019-05-21T09:48:57.095Z,4.50
2019-05-21T09:49:57.105Z,5.90
2019-05-21T09:50:57.095Z,4.30
2019-05-21T09:51:57.062Z,3.80
2019-05-21T09:52:57.041Z,4.50
2019-05-21T09:53:57.034Z,4.50
2019-05-21T09:54:57.025Z,4.00
2019-05-21T09:55:57.029Z,7.40
2019-05-21T09:56:56.997Z,5.20
2019-05-21T09:57:56.993Z,6.50
2019-05-21T09:58:56.977Z,4.70
2019-05-21T09:59:56.967Z,5.10
2019-05-21T10:00:56.992Z,3.50
2019-05-21T10:01:57.005Z,3.60
2019-05-21T10:02:56.938Z,3.80
2019-05-21T10:03:56.936Z,3.80
2019-05-21T10:04:57.049Z,5.20
2019-05-21T10:05:56.907Z,4.00
2019-05-21T10:06:56.913Z,5.10
2019-05-21T10:07:56.877Z,5.20
2019-05-21T10:08:56.887Z,5.40
2019-05-21T10:09:56.874Z,8.40
2019-05-21T10:10:56.852Z,4.30
2019-05-21T10:11:56.849Z,4.50
2019-05-21T10:12:56.831Z,4.00
2019-05-21T10:13:56.814Z,4.20
2019-05-21T10:14:56.807Z,4.60
2019-05-21T10:16:01.043Z,3.90
2019-05-21T10:16:56.804Z,3.60
2019-05-21T10:17:56.793Z,3.50
2019-05-21T10:18:56.764Z,3.70
2019-05-21T10:19:58.752Z,3.50
2019-05-21T10:20:56.750Z,4.40
2019-05-21T10:21:57.216Z,3.70
2019-05-21T10:22:56.717Z,3.80
2019-05-21T10:23:56.705Z,4.70
2019-05-21T10:24:56.712Z,3.70
2019-05-21T10:25:56.683Z,4.10
2019-05-21T10:26:56.758Z,3.80
2019-05-21T10:27:56.701Z,4.70
2019-05-21T10:28:56.660Z,3.70
2019-05-21T10:29:56.648Z,4.00
2019-05-21T10:30:56.628Z,4.40
2019-05-21T10:31:56.645Z,5.60
2019-05-21T10:32:56.619Z,4.10
2019-05-21T10:33:56.598Z,5.60
2019-05-21T10:34:56.594Z,3.50
2019-05-21T10:35:56.591Z,3.80
2019-05-21T10:36:56.593Z,5.70
2019-05-21T10:37:56.559Z,4.90
2019-05-21T10:38:56.553Z,4.60
2019-05-21T10:39:56.534Z,5.40
2019-05-21T10:40:56.539Z,6.40
2019-05-21T10:41:56.543Z,4.60
2019-05-21T10:42:56.507Z,6.00
2019-05-21T10:43:56.495Z,4.20
2019-05-21T10:44:56.478Z,5.10
2019-05-21T10:45:56.477Z,5.50
2019-05-21T10:46:56.492Z,4.50
2019-05-21T10:47:56.449Z,3.60
2019-05-21T10:48:56.436Z,6.60
2019-05-21T10:49:56.443Z,4.20
2019-05-21T10:50:56.407Z,3.60
2019-05-21T10:51:56.437Z,4.20
2019-05-21T10:52:56.391Z,3.70
2019-05-21T10:53:56.382Z,4.00
2019-05-21T10:54:56.370Z,4.10
2019-05-21T10:55:56.370Z,4.90
2019-05-21T10:56:56.381Z,3.80
2019-05-21T10:57:56.353Z,5.70
2019-05-21T10:58:56.332Z,4.60
2019-05-21T10:59:56.321Z,3.80
2019-05-21T11:00:56.308Z,3.70
2019-05-21T11:01:56.319Z,4.50
2019-05-21T11:02:56.290Z,3.80
2019-05-21T11:03:56.277Z,3.20
2019-05-21T11:04:56.265Z,3.30
2019-05-21T11:06:09.543Z,3.50
2019-05-21T11:06:57.270Z,4.00
2019-05-21T11:07:56.265Z,3.80
2019-05-21T11:08:56.223Z,3.60
2019-05-21T11:09:56.257Z,3.60
2019-05-21T11:10:56.204Z,4.70
2019-05-21T11:11:56.199Z,3.60
2019-05-21T11:12:56.213Z,5.00
2019-05-21T11:13:56.177Z,4.00
2019-05-21T11:14:56.158Z,3.50
2019-05-21T11:15:56.160Z,3.90
2019-05-21T11:16:56.164Z,3.30
2019-05-21T11:18:09.843Z,4.20
2019-05-21T11:18:57.124Z,3.50
2019-05-21T11:19:56.125Z,3.80
2019-05-21T11:20:56.094Z,4.00
2019-05-21T11:21:56.087Z,4.10
2019-05-21T11:22:58.337Z,3.20
2019-05-21T11:23:56.117Z,3.10
2019-05-21T11:24:56.058Z,3.30
2019-05-21T11:25:56.052Z,5.00
2019-05-21T11:26:56.033Z,4.80
2019-05-21T11:27:56.037Z,3.20
2019-05-21T11:28:56.007Z,4.60
2019-05-21T11:29:56.006Z,3.90
2019-05-21T11:30:55.987Z,2.80
2019-05-21T11:31:57.658Z,4.40
2019-05-21T11:32:56.039Z,2.90
2019-05-21T11:33:55.960Z,3.00
2019-05-21T11:34:55.953Z,3.90
2019-05-21T11:35:55.939Z,4.30
2019-05-21T11:36:55.929Z,5.60
2019-05-21T11:37:55.946Z,3.10
2019-05-21T11:38:55.910Z,3.20
2019-05-21T11:39:55.894Z,3.50
2019-05-21T11:40:55.893Z,4.10
2019-05-21T11:41:55.882Z,3.00
2019-05-21T11:42:55.943Z,5.00
2019-05-21T11:43:55.873Z,4.90
2019-05-21T11:44:55.850Z,3.50
2019-05-21T11:45:55.834Z,3.40
2019-05-21T11:46:55.826Z,3.20
2019-05-21T11:47:55.833Z,3.80
2019-05-21T11:48:55.804Z,4.90
2019-05-21T11:49:55.800Z,3.30
2019-05-21T11:50:55.785Z,3.20
2019-05-21T11:51:55.768Z,4.20
2019-05-21T11:52:55.773Z,4.30
2019-05-21T11:53:55.749Z,3.70
2019-05-21T11:54:56.034Z,3.40
2019-05-21T11:55:55.737Z,3.60
2019-05-21T11:56:55.734Z,4.60
2019-05-21T11:57:55.753Z,3.90
2019-05-21T11:58:55.696Z,3.30
2019-05-21T11:59:55.685Z,4.50
2019-05-21T12:00:55.683Z,3.10
2019-05-21T12:01:55.676Z,3.80
2019-05-21T12:02:55.691Z,4.70
2019-05-21T12:03:55.645Z,3.40
2019-05-21T12:04:55.629Z,3.30
2019-05-21T12:05:55.629Z,3.90
2019-05-21T12:06:55.620Z,2.70
2019-05-21T12:07:55.627Z,2.70
2019-05-21T12:08:57.282Z,4.30
2019-05-21T12:09:55.577Z,3.30
2019-05-21T12:10:55.565Z,3.90
2019-05-21T12:11:55.557Z,3.00
2019-05-21T12:12:55.587Z,5.20
2019-05-21T12:13:55.548Z,3.10
2019-05-21T12:14:55.548Z,3.00
2019-05-21T12:15:55.528Z,3.60
2019-05-21T12:16:55.509Z,3.40
2019-05-21T12:17:55.508Z,6.40
2019-05-21T12:18:55.483Z,3.20
2019-05-21T12:19:55.475Z,3.40
2019-05-21T12:20:55.461Z,3.00
2019-05-21T12:21:55.451Z,4.30
2019-05-21T12:22:55.483Z,3.40
2019-05-21T12:23:55.427Z,3.70
2019-05-21T12:24:55.417Z,2.80
2019-05-21T12:25:55.471Z,3.20
2019-05-21T12:26:55.395Z,2.60
2019-05-21T12:27:55.420Z,3.60
2019-05-21T12:28:55.383Z,3.50
2019-05-21T12:29:55.361Z,4.00
2019-05-21T12:30:55.360Z,5.00
2019-05-21T12:31:55.348Z,3.00
2019-05-21T12:32:55.367Z,3.80
2019-05-21T12:33:55.321Z,3.60
2019-05-21T12:34:55.307Z,3.60
2019-05-21T12:35:55.309Z,3.10
2019-05-21T12:36:55.291Z,3.20
2019-05-21T12:37:55.274Z,3.80
2019-05-21T12:38:55.277Z,3.90
2019-05-21T12:39:55.250Z,3.10
2019-05-21T12:40:55.244Z,3.90
2019-05-21T12:41:55.233Z,6.00
2019-05-21T12:42:55.229Z,3.60
2019-05-21T12:43:55.254Z,4.30
2019-05-21T12:44:55.199Z,4.00
2019-05-21T12:45:55.212Z,3.70
2019-05-21T12:46:55.181Z,3.70
2019-05-21T12:47:55.178Z,4.10
2019-05-21T12:48:55.185Z,5.10
2019-05-21T12:49:55.141Z,4.20
2019-05-21T12:50:55.138Z,4.40
2019-05-21T12:51:55.120Z,3.50
2019-05-21T12:52:55.112Z,5.10
2019-05-21T12:53:55.122Z,3.20
2019-05-21T12:54:55.092Z,3.40
2019-05-21T12:55:55.078Z,3.20
2019-05-21T12:56:55.072Z,4.20
2019-05-21T12:57:55.065Z,3.50
2019-05-21T12:58:55.072Z,4.60
2019-05-21T12:59:55.039Z,4.90
2019-05-21T13:00:55.023Z,3.80
2019-05-21T13:01:55.014Z,3.70
2019-05-21T13:02:55.002Z,3.70
2019-05-21T13:03:55.571Z,5.00
2019-05-21T13:04:54.986Z,3.90